Magnolia, Massachusetts
Current Conditions -  °F | °C
As of 4:53 PM on Monday 20 Oct 2014 (Local Time) from KBVY Reporting Station
Clear Clear  
Wind Chill: 56°   Ceiling: Unl
Heat Index: 56°   Visibility: 10mi
Dew Point: 29°   Wind: 15mph
Humidity: 36%   Direction: 240°WSW
Pressure: 29.96"   Gusts: NA
Location:  42.6166°N, 70.7157°W
Report Text: KBVY 202053Z 24013KT 10SM CLR 13/M02 A2996 RMK AO2 SLP140 T01331017 55003
Loading
Personal Weather Stations






























Interactive Weather Map
Tropical Storm Tracking
New forecast layout! Learn more

10-Day Weather Forecast

Advertisements
Track Severe Weather on mobile